Time;durP1;ratioP1;P1;durP2;ratioP2;P2;SDS_P1;SDS_P2;PMS_P1;PMS_P2;Temp;Humidity;BMP_temperature;BMP_pressure;BME280_temperature;BME280_humidity;BME280_pressure;Samples;Min_cycle;Max_cycle;Signal;HPM_P1;HPM_P2
2022/03/28 00:01:42;;;;;;;41.35;17.83;;;;;;;;;;5073228;28;20024;-67
2022/03/28 00:04:08;;;;;;;42.35;17.42;;;;;;;;;;5074134;28;20474;-67
2022/03/28 00:06:35;;;;;;;43.05;18.67;;;;;;;;;;5073754;28;20028;-67
2022/03/28 00:09:01;;;;;;;46.58;19.88;;;;;;;;;;5073606;28;20099;-67
2022/03/28 00:11:27;;;;;;;50.78;22.67;;;;;;;;;;5072398;28;20028;-67
2022/03/28 00:13:54;;;;;;;58.25;24.10;;;;;;;;;;5071528;28;20385;-67
2022/03/28 00:16:20;;;;;;;52.33;24.52;;;;;;;;;;5072939;28;20020;-67
2022/03/28 00:18:47;;;;;;;57.30;24.75;;;;;;;;;;5071602;28;20111;-68
2022/03/28 00:21:13;;;;;;;53.35;24.88;;;;;;;;;;5071599;28;20476;-68
2022/03/28 00:23:39;;;;;;;67.82;29.15;;;;;;;;;;5073528;28;20107;-68
2022/03/28 00:26:06;;;;;;;55.45;27.88;;;;;;;;;;5071857;28;20051;-68
2022/03/28 00:28:32;;;;;;;65.13;28.70;;;;;;;;;;5071532;28;20031;-68
2022/03/28 00:30:58;;;;;;;76.22;32.03;;;;;;;;;;5071526;28;20030;-68
2022/03/28 00:33:24;;;;;;;66.18;31.50;;;;;;;;;;5073027;28;20052;-69
2022/03/28 00:35:51;;;;;;;67.68;30.63;;;;;;;;;;5072697;28;20044;-68
2022/03/28 00:38:17;;;;;;;67.25;30.80;;;;;;;;;;5072868;28;20048;-68
2022/03/28 00:40:44;;;;;;;67.13;30.25;;;;;;;;;;5072692;28;20051;-68
2022/03/28 00:43:10;;;;;;;63.80;30.92;;;;;;;;;;5072661;28;20020;-68
2022/03/28 00:45:37;;;;;;;64.47;29.63;;;;;;;;;;5070536;28;20036;-67
2022/03/28 00:48:04;;;;;;;66.53;28.48;;;;;;;;;;5071931;28;20435;-67
2022/03/28 00:50:32;;;;;;;60.92;27.75;;;;;;;;;;5060665;28;20035;-67
2022/03/28 00:52:59;;;;;;;64.60;27.65;;;;;;;;;;5069609;28;20032;-67
2022/03/28 00:55:25;;;;;;;59.20;29.00;;;;;;;;;;5066235;28;20025;-68
2022/03/28 00:57:52;;;;;;;57.90;27.65;;;;;;;;;;5061840;28;20147;-67
2022/03/28 01:00:18;;;;;;;51.00;26.02;;;;;;;;;;5061589;28;20025;-68
2022/03/28 01:02:45;;;;;;;58.30;28.02;;;;;;;;;;5067038;28;20480;-67
2022/03/28 01:05:12;;;;;;;54.92;28.75;;;;;;;;;;5070613;28;20052;-67
2022/03/28 01:07:39;;;;;;;67.35;28.42;;;;;;;;;;5072921;28;20059;-67
2022/03/28 01:10:06;;;;;;;64.25;27.10;;;;;;;;;;5063541;28;20032;-68
2022/03/28 01:12:34;;;;;;;58.15;25.08;;;;;;;;;;5076731;28;20035;-67
2022/03/28 01:15:01;;;;;;;56.97;26.63;;;;;;;;;;5038777;28;20029;-67
2022/03/28 01:20:13;;;;;;;57.38;22.73;;;;;;;;;;5061088;28;20104;-68
2022/03/28 01:22:39;;;;;;;47.03;21.75;;;;;;;;;;5056614;28;20025;-68
2022/03/28 01:25:07;;;;;;;47.70;20.10;;;;;;;;;;5035011;28;20439;-68
2022/03/28 01:27:33;;;;;;;48.00;19.48;;;;;;;;;;5050272;28;20093;-68
2022/03/28 01:29:59;;;;;;;43.22;18.52;;;;;;;;;;5033572;28;20032;-69
2022/03/28 01:32:26;;;;;;;44.50;20.77;;;;;;;;;;5055908;28;20020;-68
2022/03/28 01:34:52;;;;;;;45.30;21.00;;;;;;;;;;5037692;28;20116;-68
2022/03/28 01:37:18;;;;;;;42.58;19.45;;;;;;;;;;5037231;28;20025;-68
2022/03/28 01:39:44;;;;;;;40.55;17.92;;;;;;;;;;5037551;28;20024;-68
2022/03/28 01:42:11;;;;;;;33.25;18.42;;;;;;;;;;5049159;28;20028;-68
2022/03/28 01:44:37;;;;;;;38.42;17.33;;;;;;;;;;5036383;28;20079;-69
2022/03/28 01:47:03;;;;;;;38.85;18.77;;;;;;;;;;5032580;28;20032;-69
2022/03/28 01:49:31;;;;;;;30.90;16.83;;;;;;;;;;5037444;28;20503;-68
2022/03/28 01:51:57;;;;;;;31.50;15.82;;;;;;;;;;5036842;28;20465;-69
2022/03/28 01:54:23;;;;;;;39.45;16.95;;;;;;;;;;5036961;28;20028;-68
2022/03/28 01:56:49;;;;;;;38.78;14.82;;;;;;;;;;5054874;28;20112;-69
2022/03/28 01:59:16;;;;;;;33.72;15.18;;;;;;;;;;5054895;28;20100;-69
2022/03/28 02:01:42;;;;;;;32.72;15.93;;;;;;;;;;5054161;28;20025;-69
2022/03/28 02:04:08;;;;;;;34.15;16.58;;;;;;;;;;5034828;28;20029;-69
2022/03/28 02:06:35;;;;;;;26.27;14.13;;;;;;;;;;5040783;28;20112;-68
2022/03/28 02:09:02;;;;;;;36.38;16.95;;;;;;;;;;5036994;28;20094;-68
2022/03/28 02:11:29;;;;;;;35.40;14.77;;;;;;;;;;5035616;28;20044;-68
2022/03/28 02:13:55;;;;;;;33.28;13.40;;;;;;;;;;5061457;28;20523;-69
2022/03/28 02:16:21;;;;;;;37.17;15.20;;;;;;;;;;5054859;28;20086;-68
2022/03/28 02:18:47;;;;;;;38.47;13.90;;;;;;;;;;5073665;28;20074;-68
2022/03/28 02:21:14;;;;;;;32.78;13.80;;;;;;;;;;5054092;28;20051;-68
2022/03/28 02:23:40;;;;;;;27.98;13.07;;;;;;;;;;5070483;28;20406;-68
2022/03/28 02:26:07;;;;;;;28.02;12.65;;;;;;;;;;5066805;28;20028;-68
2022/03/28 02:28:33;;;;;;;38.47;12.98;;;;;;;;;;5064487;28;20020;-67
2022/03/28 02:31:00;;;;;;;30.25;12.70;;;;;;;;;;5068368;28;20032;-69
2022/03/28 02:33:26;;;;;;;35.13;11.82;;;;;;;;;;5069666;28;20028;-68
2022/03/28 02:35:53;;;;;;;29.83;11.25;;;;;;;;;;5056351;28;20048;-68
2022/03/28 02:38:19;;;;;;;26.27;11.82;;;;;;;;;;5067272;28;20075;-68
2022/03/28 02:40:45;;;;;;;25.48;11.73;;;;;;;;;;5069606;28;20025;-68
2022/03/28 02:43:27;;;;;;;29.45;10.95;;;;;;;;;;5062477;28;20025;-68
2022/03/28 02:45:55;;;;;;;24.45;10.18;;;;;;;;;;5050573;28;20391;-69
2022/03/28 02:48:21;;;;;;;24.58;9.80;;;;;;;;;;5068581;28;20028;-68
2022/03/28 02:50:50;;;;;;;30.58;9.80;;;;;;;;;;5071316;28;20028;-68
2022/03/28 02:53:17;;;;;;;25.65;9.65;;;;;;;;;;5068094;28;20067;-68
2022/03/28 02:55:43;;;;;;;25.65;10.23;;;;;;;;;;5068730;28;20032;-68
2022/03/28 02:58:09;;;;;;;27.73;10.25;;;;;;;;;;5069516;28;20024;-68
2022/03/28 03:00:36;;;;;;;30.08;11.77;;;;;;;;;;5050142;28;20496;-68
2022/03/28 03:03:02;;;;;;;26.77;11.73;;;;;;;;;;5066706;28;20476;-69
2022/03/28 03:05:28;;;;;;;37.08;12.82;;;;;;;;;;5062234;28;20025;-68
2022/03/28 03:07:54;;;;;;;24.00;10.43;;;;;;;;;;5066980;28;20028;-67
2022/03/28 03:10:21;;;;;;;30.17;11.48;;;;;;;;;;5050857;28;20021;-69
2022/03/28 03:12:47;;;;;;;27.58;10.32;;;;;;;;;;5065232;28;20102;-68
2022/03/28 03:15:13;;;;;;;28.63;10.13;;;;;;;;;;5050528;28;20480;-70
2022/03/28 03:17:39;;;;;;;24.58;7.32;;;;;;;;;;5049455;28;20032;-69
2022/03/28 03:20:09;;;;;;;30.55;8.77;;;;;;;;;;5050440;28;20025;-69
2022/03/28 03:22:35;;;;;;;36.10;9.02;;;;;;;;;;5051178;28;20082;-70
2022/03/28 03:25:02;;;;;;;27.00;7.93;;;;;;;;;;5028851;28;20037;-69
2022/03/28 03:27:28;;;;;;;32.47;7.50;;;;;;;;;;5045551;28;20116;-68
2022/03/28 03:29:55;;;;;;;27.50;7.68;;;;;;;;;;5023570;28;20029;-69
2022/03/28 03:32:22;;;;;;;39.95;11.40;;;;;;;;;;5044550;28;20033;-68
2022/03/28 03:34:48;;;;;;;33.42;10.93;;;;;;;;;;5045107;28;20017;-68
2022/03/28 03:37:15;;;;;;;42.92;11.30;;;;;;;;;;5046194;28;20031;-68
2022/03/28 03:39:41;;;;;;;41.17;10.10;;;;;;;;;;5045323;28;20044;-69
2022/03/28 03:42:08;;;;;;;35.47;10.88;;;;;;;;;;5031007;28;20646;-69
2022/03/28 03:44:34;;;;;;;30.60;11.23;;;;;;;;;;5048708;28;20484;-71
2022/03/28 03:47:02;;;;;;;36.35;10.52;;;;;;;;;;5030075;28;20029;-71
2022/03/28 03:49:28;;;;;;;28.92;9.35;;;;;;;;;;5027803;28;20105;-70
2022/03/28 03:51:56;;;;;;;24.02;8.73;;;;;;;;;;5048161;28;20033;-69
2022/03/28 03:54:22;;;;;;;34.92;10.38;;;;;;;;;;5028681;28;20548;-71
2022/03/28 03:56:48;;;;;;;40.67;12.48;;;;;;;;;;5027491;28;20048;-69
2022/03/28 03:59:15;;;;;;;40.08;13.10;;;;;;;;;;5023843;28;20030;-69
2022/03/28 04:01:41;;;;;;;31.25;11.20;;;;;;;;;;5026978;28;20036;-71
2022/03/28 04:04:10;;;;;;;34.28;9.68;;;;;;;;;;5029821;28;20021;-70
2022/03/28 04:06:42;;;;;;;30.33;9.93;;;;;;;;;;5045272;28;20028;-70
2022/03/28 04:09:08;;;;;;;29.60;10.32;;;;;;;;;;5045302;28;20069;-71
2022/03/28 04:11:35;;;;;;;37.30;9.15;;;;;;;;;;5027477;28;20028;-70
2022/03/28 04:14:01;;;;;;;32.42;8.48;;;;;;;;;;5033786;28;20037;-70
2022/03/28 04:16:27;;;;;;;31.35;9.30;;;;;;;;;;5027501;28;20058;-70
2022/03/28 04:18:53;;;;;;;43.33;11.05;;;;;;;;;;5043821;28;20106;-69
2022/03/28 04:21:20;;;;;;;39.33;9.73;;;;;;;;;;5047402;28;20112;-72
2022/03/28 04:23:46;;;;;;;41.58;12.43;;;;;;;;;;5025647;28;20063;-72
2022/03/28 04:26:13;;;;;;;46.30;10.00;;;;;;;;;;5024852;28;20025;-70
2022/03/28 04:28:39;;;;;;;32.25;9.13;;;;;;;;;;5044883;28;20545;-71
2022/03/28 04:31:05;;;;;;;50.83;11.27;;;;;;;;;;5045887;28;20532;-71
2022/03/28 04:33:32;;;;;;;46.33;9.80;;;;;;;;;;5025268;28;20052;-70
2022/03/28 04:35:58;;;;;;;57.70;12.32;;;;;;;;;;5048397;28;20025;-70
2022/03/28 04:38:25;;;;;;;40.20;10.10;;;;;;;;;;5029054;28;20048;-70
2022/03/28 04:40:51;;;;;;;41.50;11.25;;;;;;;;;;5031673;28;20049;-69
2022/03/28 04:43:18;;;;;;;49.05;12.90;;;;;;;;;;5024743;28;20020;-70
2022/03/28 04:45:44;;;;;;;39.65;12.45;;;;;;;;;;5040493;28;20106;-69
2022/03/28 04:48:11;;;;;;;54.05;12.30;;;;;;;;;;5028381;28;20053;-71
2022/03/28 04:50:37;;;;;;;48.03;11.55;;;;;;;;;;5025915;28;20032;-70
2022/03/28 04:53:04;;;;;;;39.50;11.18;;;;;;;;;;5029551;28;20175;-71
2022/03/28 04:55:30;;;;;;;51.28;13.90;;;;;;;;;;5042862;28;20057;-71
2022/03/28 04:57:56;;;;;;;48.35;11.45;;;;;;;;;;5028706;28;20029;-71
2022/03/28 05:00:23;;;;;;;44.55;12.20;;;;;;;;;;5034294;28;20033;-72
2022/03/28 05:02:49;;;;;;;47.97;11.88;;;;;;;;;;5015648;28;20420;-71
2022/03/28 05:05:15;;;;;;;31.20;9.77;;;;;;;;;;5026055;28;20075;-71
2022/03/28 05:07:42;;;;;;;45.55;11.88;;;;;;;;;;5027203;28;20053;-71
2022/03/28 05:10:09;;;;;;;43.55;11.65;;;;;;;;;;5034719;28;20533;-71
2022/03/28 05:12:38;;;;;;;54.40;14.27;;;;;;;;;;5043617;28;20116;-70
2022/03/28 05:15:05;;;;;;;63.38;15.43;;;;;;;;;;5044552;28;20527;-70
2022/03/28 05:17:32;;;;;;;60.25;15.95;;;;;;;;;;5071067;28;20373;-70
2022/03/28 05:19:59;;;;;;;44.30;11.85;;;;;;;;;;5045869;28;20031;-71
2022/03/28 05:22:26;;;;;;;40.08;12.38;;;;;;;;;;5068609;28;20025;-71
2022/03/28 05:24:53;;;;;;;31.73;11.50;;;;;;;;;;5045105;28;20388;-71
2022/03/28 05:27:20;;;;;;;46.38;11.82;;;;;;;;;;5070016;28;20420;-71
2022/03/28 05:29:47;;;;;;;39.90;11.50;;;;;;;;;;5053758;28;20020;-70
2022/03/28 05:32:13;;;;;;;39.53;10.65;;;;;;;;;;5049193;28;20024;-72
2022/03/28 05:34:40;;;;;;;38.65;12.73;;;;;;;;;;5046006;28;20029;-70
2022/03/28 05:37:09;;;;;;;51.50;13.43;;;;;;;;;;5064645;28;20131;-71
2022/03/28 05:39:36;;;;;;;43.60;11.80;;;;;;;;;;5072019;28;20028;-70
2022/03/28 05:42:03;;;;;;;43.20;11.90;;;;;;;;;;5065863;28;20029;-71
2022/03/28 05:44:30;;;;;;;44.03;12.95;;;;;;;;;;5049499;28;20497;-72
2022/03/28 05:46:56;;;;;;;46.67;12.63;;;;;;;;;;5050595;28;20116;-71
2022/03/28 05:49:25;;;;;;;45.15;13.95;;;;;;;;;;5046236;28;20423;-70
2022/03/28 05:51:52;;;;;;;48.63;12.45;;;;;;;;;;5050073;28;20063;-72
2022/03/28 05:54:19;;;;;;;44.13;15.02;;;;;;;;;;5054153;28;20060;-72
2022/03/28 05:56:45;;;;;;;54.95;16.40;;;;;;;;;;5048362;28;20115;-72
2022/03/28 05:59:11;;;;;;;67.00;16.02;;;;;;;;;;5055025;28;20024;-71
2022/03/28 06:01:38;;;;;;;49.60;13.68;;;;;;;;;;5050143;28;20093;-72
2022/03/28 06:04:04;;;;;;;60.42;15.68;;;;;;;;;;5054478;28;20029;-72
2022/03/28 06:06:31;;;;;;;46.30;14.63;;;;;;;;;;5065165;28;20017;-71
2022/03/28 06:08:57;;;;;;;58.05;16.98;;;;;;;;;;5066489;28;20021;-72
2022/03/28 06:11:24;;;;;;;40.17;13.10;;;;;;;;;;5047582;28;20033;-70
2022/03/28 06:13:50;;;;;;;54.25;14.07;;;;;;;;;;5051274;28;20127;-70
2022/03/28 06:16:17;;;;;;;49.95;15.10;;;;;;;;;;5045701;28;20425;-71
2022/03/28 06:18:43;;;;;;;46.88;13.35;;;;;;;;;;5064833;28;20020;-73
2022/03/28 06:21:09;;;;;;;39.63;12.05;;;;;;;;;;5069409;28;20036;-71
2022/03/28 06:23:36;;;;;;;42.80;13.18;;;;;;;;;;5070081;28;20147;-72
2022/03/28 06:26:02;;;;;;;43.10;12.43;;;;;;;;;;5052729;28;20028;-71
2022/03/28 06:28:28;;;;;;;35.20;12.00;;;;;;;;;;5057149;28;20121;-72
2022/03/28 06:30:55;;;;;;;33.95;11.68;;;;;;;;;;5057327;28;20122;-72
2022/03/28 06:33:22;;;;;;;36.70;10.80;;;;;;;;;;5077817;28;20027;-72
2022/03/28 06:35:48;;;;;;;36.72;11.85;;;;;;;;;;5059369;28;20032;-71
2022/03/28 06:38:15;;;;;;;39.58;13.55;;;;;;;;;;5053780;28;20049;-70
2022/03/28 06:40:41;;;;;;;34.63;12.20;;;;;;;;;;5050134;28;20498;-72
2022/03/28 06:43:07;;;;;;;32.80;10.57;;;;;;;;;;5047623;28;20024;-72
2022/03/28 06:45:36;;;;;;;39.30;12.27;;;;;;;;;;5078447;28;20035;-72
2022/03/28 06:48:02;;;;;;;49.53;14.55;;;;;;;;;;5057235;28;20178;-72
2022/03/28 06:50:28;;;;;;;37.47;11.52;;;;;;;;;;5070045;28;20047;-70
2022/03/28 06:52:55;;;;;;;41.58;14.23;;;;;;;;;;5053244;28;20080;-74
2022/03/28 06:55:22;;;;;;;39.15;12.05;;;;;;;;;;5055834;28;20027;-71
2022/03/28 06:57:48;;;;;;;36.97;13.18;;;;;;;;;;5076576;28;20031;-71
2022/03/28 07:00:15;;;;;;;39.60;13.02;;;;;;;;;;5065443;28;20172;-73
2022/03/28 07:02:41;;;;;;;35.22;14.15;;;;;;;;;;5068737;28;20476;-71
2022/03/28 07:05:08;;;;;;;29.75;12.07;;;;;;;;;;5069132;28;20043;-71
2022/03/28 07:07:45;;;;;;;28.63;13.30;;;;;;;;;;5044450;28;20028;-71
2022/03/28 07:10:12;;;;;;;38.80;15.35;;;;;;;;;;5065561;28;20033;-72
2022/03/28 07:12:39;;;;;;;44.67;15.20;;;;;;;;;;5061326;28;20021;-69
2022/03/28 07:15:06;;;;;;;34.03;15.48;;;;;;;;;;5045853;28;20025;-72
2022/03/28 07:17:44;;;;;;;48.25;15.23;;;;;;;;;;5046238;28;20099;-72
2022/03/28 07:20:11;;;;;;;44.08;15.02;;;;;;;;;;5030907;28;20130;-71
2022/03/28 07:22:37;;;;;;;45.03;15.75;;;;;;;;;;5048482;28;20025;-71
2022/03/28 07:25:04;;;;;;;28.58;14.50;;;;;;;;;;5048547;28;20619;-71
2022/03/28 07:27:30;;;;;;;39.78;17.25;;;;;;;;;;5046830;28;20112;-72
2022/03/28 07:29:59;;;;;;;31.80;14.70;;;;;;;;;;5047556;28;20434;-72
2022/03/28 07:32:25;;;;;;;38.63;15.60;;;;;;;;;;5029992;28;20041;-73
2022/03/28 07:34:51;;;;;;;35.15;14.32;;;;;;;;;;5032022;28;20017;-72
2022/03/28 07:37:18;;;;;;;33.40;11.85;;;;;;;;;;5029990;28;20025;-71
2022/03/28 07:39:44;;;;;;;29.30;11.20;;;;;;;;;;5027237;28;20025;-71
2022/03/28 07:42:13;;;;;;;29.45;12.30;;;;;;;;;;5049217;28;20441;-70
2022/03/28 07:44:41;;;;;;;33.03;13.00;;;;;;;;;;5045400;28;20413;-72
2022/03/28 07:47:10;;;;;;;35.28;13.25;;;;;;;;;;5031423;28;20056;-71
2022/03/28 07:49:38;;;;;;;36.88;13.38;;;;;;;;;;5043179;28;20017;-71
2022/03/28 07:52:06;;;;;;;31.55;15.57;;;;;;;;;;5026812;28;20032;-74
2022/03/28 07:54:33;;;;;;;31.05;12.35;;;;;;;;;;5031267;28;20087;-71
2022/03/28 07:56:59;;;;;;;32.78;12.55;;;;;;;;;;5048071;28;20036;-71
2022/03/28 07:59:25;;;;;;;33.00;11.77;;;;;;;;;;5044865;28;20432;-70
2022/03/28 08:01:52;;;;;;;30.40;11.80;;;;;;;;;;5038998;28;20512;-69
2022/03/28 08:04:18;;;;;;;31.48;11.77;;;;;;;;;;5029191;28;20091;-69
2022/03/28 08:06:45;;;;;;;34.78;12.77;;;;;;;;;;5030507;28;20477;-71
2022/03/28 08:09:11;;;;;;;27.75;10.13;;;;;;;;;;5047074;28;20049;-71
2022/03/28 08:11:37;;;;;;;28.85;11.02;;;;;;;;;;5048582;28;20070;-72
2022/03/28 08:14:04;;;;;;;30.30;11.02;;;;;;;;;;5043854;28;20051;-72
2022/03/28 08:16:31;;;;;;;26.88;10.55;;;;;;;;;;5067266;28;20494;-73
2022/03/28 08:18:58;;;;;;;28.98;10.48;;;;;;;;;;5048110;28;20366;-70
2022/03/28 08:21:25;;;;;;;24.20;10.05;;;;;;;;;;5068105;28;20120;-72
2022/03/28 08:23:52;;;;;;;24.02;8.90;;;;;;;;;;5034990;28;20437;-70
2022/03/28 08:26:18;;;;;;;25.38;9.40;;;;;;;;;;5065281;28;20049;-70
2022/03/28 08:28:45;;;;;;;26.45;8.50;;;;;;;;;;5067188;28;20047;-70
2022/03/28 08:31:12;;;;;;;25.42;9.32;;;;;;;;;;5066156;28;20020;-70
2022/03/28 08:33:38;;;;;;;28.27;8.68;;;;;;;;;;5066104;28;20033;-69
2022/03/28 08:36:05;;;;;;;32.28;7.35;;;;;;;;;;5067714;28;20028;-70
2022/03/28 08:38:34;;;;;;;25.02;7.80;;;;;;;;;;5049944;28;20496;-68
2022/03/28 08:41:01;;;;;;;22.40;7.18;;;;;;;;;;5051772;28;20029;-69
2022/03/28 08:43:27;;;;;;;25.85;7.90;;;;;;;;;;5050720;28;20027;-69
2022/03/28 08:45:54;;;;;;;23.08;9.25;;;;;;;;;;5064687;28;20543;-70
2022/03/28 08:48:20;;;;;;;19.70;6.40;;;;;;;;;;5061486;28;20503;-70
2022/03/28 08:50:49;;;;;;;21.85;6.15;;;;;;;;;;5055687;28;20071;-69
2022/03/28 08:53:17;;;;;;;20.67;6.82;;;;;;;;;;5068871;28;20021;-69
2022/03/28 08:55:44;;;;;;;16.23;5.18;;;;;;;;;;5071835;28;20025;-69
2022/03/28 08:58:11;;;;;;;25.75;6.57;;;;;;;;;;5049337;28;20020;-70
2022/03/28 09:00:38;;;;;;;16.50;6.88;;;;;;;;;;5047217;28;20025;-70
2022/03/28 09:03:05;;;;;;;18.30;5.43;;;;;;;;;;5046573;28;20481;-69
2022/03/28 09:05:35;;;;;;;22.33;5.93;;;;;;;;;;5058008;28;20032;-69
2022/03/28 09:08:02;;;;;;;19.80;5.82;;;;;;;;;;5047662;28;20025;-70
2022/03/28 09:10:34;;;;;;;19.88;5.75;;;;;;;;;;5047736;28;20404;-72
2022/03/28 09:13:06;;;;;;;21.80;5.82;;;;;;;;;;5061931;28;20057;-68
2022/03/28 09:15:52;;;;;;;20.20;5.57;;;;;;;;;;5065969;28;20060;-69
2022/03/28 09:18:22;;;;;;;21.73;6.55;;;;;;;;;;5045254;28;20121;-69
2022/03/28 09:20:50;;;;;;;23.02;6.22;;;;;;;;;;5067082;28;20477;-68
2022/03/28 09:23:46;;;;;;;17.17;6.72;;;;;;;;;;5063404;28;20024;-70
2022/03/28 09:26:16;;;;;;;18.10;5.20;;;;;;;;;;5045840;28;20369;-69
2022/03/28 09:28:47;;;;;;;17.23;6.00;;;;;;;;;;5073330;28;20071;-69
2022/03/28 09:31:18;;;;;;;15.73;5.40;;;;;;;;;;5072472;28;20077;-69
2022/03/28 09:34:10;;;;;;;17.83;6.18;;;;;;;;;;5051083;28;20024;-69
2022/03/28 09:36:50;;;;;;;23.25;6.28;;;;;;;;;;5048178;28;20032;-68
2022/03/28 09:39:19;;;;;;;17.17;6.22;;;;;;;;;;5055087;28;20112;-68
2022/03/28 09:41:46;;;;;;;15.70;6.60;;;;;;;;;;5067554;28;20028;-68
2022/03/28 09:44:13;;;;;;;21.98;6.88;;;;;;;;;;5050852;28;20020;-67
2022/03/28 09:46:39;;;;;;;22.33;5.78;;;;;;;;;;5028779;28;20041;-68
2022/03/28 09:49:08;;;;;;;19.27;6.75;;;;;;;;;;5049444;28;20366;-67
2022/03/28 09:51:35;;;;;;;18.58;6.57;;;;;;;;;;5065493;28;20029;-70
2022/03/28 09:54:02;;;;;;;27.65;7.43;;;;;;;;;;5054645;28;20098;-68
2022/03/28 09:56:28;;;;;;;21.17;7.47;;;;;;;;;;5049081;28;20481;-68
2022/03/28 09:59:01;;;;;;;16.85;6.45;;;;;;;;;;5051334;28;20024;-69
2022/03/28 10:01:38;;;;;;;16.85;5.22;;;;;;;;;;5067833;28;20230;-70
2022/03/28 10:04:09;;;;;;;10.25;4.78;;;;;;;;;;5053708;28;20133;-69
2022/03/28 10:06:41;;;;;;;15.27;4.88;;;;;;;;;;5052589;28;20032;-70
2022/03/28 10:09:08;;;;;;;16.40;5.30;;;;;;;;;;5038889;28;20061;-70
2022/03/28 10:11:36;;;;;;;16.45;5.03;;;;;;;;;;5056628;28;20388;-69
2022/03/28 10:14:03;;;;;;;16.10;5.05;;;;;;;;;;5047010;28;20103;-69
2022/03/28 10:16:29;;;;;;;18.33;5.32;;;;;;;;;;5069399;28;20087;-69
2022/03/28 10:18:59;;;;;;;14.85;5.47;;;;;;;;;;5070606;28;20101;-69
2022/03/28 10:21:35;;;;;;;21.77;6.43;;;;;;;;;;5055152;28;20116;-71
2022/03/28 10:24:04;;;;;;;18.90;6.47;;;;;;;;;;5066763;28;20495;-71
2022/03/28 10:26:33;;;;;;;15.85;5.90;;;;;;;;;;5067312;28;20029;-71
2022/03/28 10:29:01;;;;;;;12.20;6.15;;;;;;;;;;5064804;28;20032;-69
2022/03/28 10:31:30;;;;;;;13.57;5.40;;;;;;;;;;5064984;28;20029;-69
2022/03/28 10:33:56;;;;;;;17.10;5.85;;;;;;;;;;5064833;28;20035;-68
2022/03/28 10:36:30;;;;;;;13.48;5.60;;;;;;;;;;5068297;28;20028;-68
2022/03/28 10:39:16;;;;;;;17.70;6.40;;;;;;;;;;5051182;28;20506;-69
2022/03/28 10:41:42;;;;;;;17.50;5.75;;;;;;;;;;5068297;28;20039;-68
2022/03/28 10:44:09;;;;;;;21.65;5.65;;;;;;;;;;5059806;28;20016;-69
2022/03/28 10:46:36;;;;;;;20.30;5.68;;;;;;;;;;5073518;28;20028;-69
2022/03/28 10:49:03;;;;;;;13.45;5.53;;;;;;;;;;5073023;28;20033;-69
2022/03/28 10:51:31;;;;;;;27.23;6.05;;;;;;;;;;5075609;28;20484;-68
2022/03/28 10:54:09;;;;;;;16.95;5.55;;;;;;;;;;5071264;28;20039;-70
2022/03/28 10:56:37;;;;;;;22.85;5.82;;;;;;;;;;5066877;28;20120;-69
2022/03/28 10:59:06;;;;;;;12.82;5.55;;;;;;;;;;5043726;28;20024;-69
2022/03/28 11:01:34;;;;;;;24.17;6.38;;;;;;;;;;5066794;28;20127;-69
2022/03/28 11:04:03;;;;;;;23.27;6.10;;;;;;;;;;5048059;28;20902;-69
2022/03/28 11:06:52;;;;;;;17.45;5.72;;;;;;;;;;5051114;28;20032;-68
2022/03/28 11:09:37;;;;;;;19.30;6.03;;;;;;;;;;5066704;28;20059;-68
2022/03/28 11:12:09;;;;;;;18.20;6.78;;;;;;;;;;5064910;28;20028;-69
2022/03/28 11:14:40;;;;;;;22.40;6.00;;;;;;;;;;5039776;28;20044;-68
2022/03/28 11:17:34;;;;;;;18.73;5.90;;;;;;;;;;5080358;28;20491;-68
2022/03/28 11:20:14;;;;;;;14.98;5.20;;;;;;;;;;5048334;28;20044;-68
2022/03/28 11:22:44;;;;;;;21.33;6.07;;;;;;;;;;5066899;28;20032;-69
2022/03/28 11:25:29;;;;;;;18.23;5.45;;;;;;;;;;5065483;28;20229;-68
2022/03/28 11:28:22;;;;;;;23.17;5.50;;;;;;;;;;5052691;28;20020;-69
2022/03/28 11:30:52;;;;;;;20.88;6.47;;;;;;;;;;5063365;28;20111;-70
2022/03/28 11:33:21;;;;;;;19.10;5.70;;;;;;;;;;5079005;28;20157;-70
2022/03/28 11:36:01;;;;;;;23.50;6.25;;;;;;;;;;5053414;28;20119;-69
2022/03/28 11:38:32;;;;;;;18.98;5.88;;;;;;;;;;5057628;28;20055;-68
2022/03/28 11:40:59;;;;;;;26.67;6.28;;;;;;;;;;5054682;28;20036;-68
2022/03/28 11:43:36;;;;;;;21.02;6.40;;;;;;;;;;5065167;28;20029;-70
2022/03/28 11:46:03;;;;;;;22.27;6.53;;;;;;;;;;5049293;28;20089;-68
2022/03/28 11:48:30;;;;;;;21.45;6.68;;;;;;;;;;5050695;28;20024;-68
2022/03/28 11:50:57;;;;;;;22.05;7.10;;;;;;;;;;5071710;28;20028;-70
2022/03/28 11:53:23;;;;;;;16.85;7.47;;;;;;;;;;5055180;28;20025;-70
2022/03/28 11:55:54;;;;;;;19.00;7.43;;;;;;;;;;5068317;28;20059;-69
2022/03/28 11:58:33;;;;;;;20.52;7.72;;;;;;;;;;5047177;28;20106;-69
2022/03/28 12:01:10;;;;;;;23.70;7.72;;;;;;;;;;5046541;28;20025;-70
2022/03/28 12:03:57;;;;;;;21.40;6.78;;;;;;;;;;5046029;28;20052;-70
2022/03/28 12:06:31;;;;;;;19.45;6.97;;;;;;;;;;5068428;28;20373;-68
2022/03/28 12:08:57;;;;;;;19.27;7.47;;;;;;;;;;5045160;28;20032;-68
2022/03/28 12:11:24;;;;;;;25.45;7.50;;;;;;;;;;5070178;28;20111;-68
2022/03/28 12:13:52;;;;;;;19.67;7.00;;;;;;;;;;5051009;28;20040;-67
2022/03/28 12:16:19;;;;;;;18.75;6.20;;;;;;;;;;5069866;28;20035;-68
2022/03/28 12:18:46;;;;;;;19.55;7.63;;;;;;;;;;5047842;28;20492;-68
2022/03/28 12:21:12;;;;;;;19.40;7.32;;;;;;;;;;5053814;28;20574;-70
2022/03/28 12:23:39;;;;;;;28.88;7.60;;;;;;;;;;5048776;28;20028;-68
2022/03/28 12:26:05;;;;;;;16.92;8.38;;;;;;;;;;5071343;28;20032;-69
2022/03/28 12:28:35;;;;;;;20.27;8.43;;;;;;;;;;5047698;28;20048;-69
2022/03/28 12:31:02;;;;;;;24.35;8.13;;;;;;;;;;5067689;28;20475;-67
2022/03/28 12:33:40;;;;;;;18.92;7.35;;;;;;;;;;5051283;28;20025;-68
2022/03/28 12:36:07;;;;;;;24.33;7.60;;;;;;;;;;5051998;28;20395;-69
2022/03/28 12:38:35;;;;;;;23.05;7.50;;;;;;;;;;5073504;28;20048;-68
2022/03/28 12:41:08;;;;;;;20.95;8.85;;;;;;;;;;5082728;28;20028;-68
2022/03/28 12:43:35;;;;;;;22.38;8.75;;;;;;;;;;5082234;28;20023;-68
2022/03/28 12:46:06;;;;;;;23.33;8.82;;;;;;;;;;5072050;28;20036;-68
2022/03/28 12:48:49;;;;;;;20.02;8.38;;;;;;;;;;5053978;28;20031;-67
2022/03/28 12:51:29;;;;;;;22.95;9.23;;;;;;;;;;5069825;28;20052;-68
2022/03/28 12:54:26;;;;;;;27.00;9.55;;;;;;;;;;5064608;28;20074;-69
2022/03/28 12:56:57;;;;;;;22.67;8.30;;;;;;;;;;5033822;28;20037;-68
2022/03/28 12:59:25;;;;;;;27.67;9.55;;;;;;;;;;5071466;28;20012;-69
2022/03/28 13:01:52;;;;;;;23.95;9.35;;;;;;;;;;5061499;28;20021;-69
2022/03/28 13:04:24;;;;;;;22.85;9.32;;;;;;;;;;5074227;28;20032;-68
2022/03/28 13:07:11;;;;;;;24.98;10.20;;;;;;;;;;5044382;28;20075;-68
2022/03/28 13:09:37;;;;;;;31.67;10.65;;;;;;;;;;5074604;28;20036;-68
2022/03/28 13:12:07;;;;;;;28.42;10.90;;;;;;;;;;5057906;28;20040;-69
2022/03/28 13:14:34;;;;;;;29.38;12.70;;;;;;;;;;5075216;28;20373;-68
2022/03/28 13:17:06;;;;;;;28.77;11.45;;;;;;;;;;5076883;28;20047;-71
2022/03/28 13:19:32;;;;;;;27.83;11.52;;;;;;;;;;5075232;28;20020;-69
2022/03/28 13:21:59;;;;;;;34.67;12.80;;;;;;;;;;5074469;28;20031;-69
2022/03/28 13:24:28;;;;;;;31.13;12.23;;;;;;;;;;5073255;28;20029;-69
2022/03/28 13:28:01;;;;;;;31.75;13.88;;;;;;;;;;5074465;28;20020;-71
2022/03/28 13:29:42;;;;;;;45.72;17.08;;;;;;;;;;5067501;28;20071;-69
2022/03/28 13:32:08;;;;;;;33.97;16.67;;;;;;;;;;5074672;28;20020;-68
2022/03/28 13:34:34;;;;;;;33.72;16.23;;;;;;;;;;5051505;28;20036;-68
2022/03/28 13:37:05;;;;;;;33.10;15.70;;;;;;;;;;5070148;28;20246;-70
2022/03/28 13:39:33;;;;;;;43.28;19.15;;;;;;;;;;5049205;28;20043;-68
2022/03/28 13:41:59;;;;;;;40.83;18.02;;;;;;;;;;5073695;28;20029;-69
2022/03/28 13:44:25;;;;;;;41.30;18.38;;;;;;;;;;5076755;28;20078;-68
2022/03/28 13:46:52;;;;;;;43.22;20.45;;;;;;;;;;5074832;28;20086;-70
2022/03/28 13:49:18;;;;;;;45.03;19.05;;;;;;;;;;5074375;28;20028;-69
2022/03/28 13:51:45;;;;;;;42.80;20.85;;;;;;;;;;5072817;28;20024;-68
2022/03/28 13:54:11;;;;;;;53.58;24.35;;;;;;;;;;5067847;28;20035;-68
2022/03/28 13:56:38;;;;;;;48.17;23.63;;;;;;;;;;5073393;28;20110;-67
2022/03/28 13:59:06;;;;;;;49.33;23.35;;;;;;;;;;5073484;28;20020;-67
2022/03/28 14:01:32;;;;;;;57.33;23.27;;;;;;;;;;5056922;28;20032;-69
2022/03/28 14:04:00;;;;;;;51.53;22.15;;;;;;;;;;5054774;28;20426;-69
2022/03/28 14:06:26;;;;;;;43.10;21.85;;;;;;;;;;5054055;28;20119;-69
2022/03/28 14:08:53;;;;;;;51.45;22.33;;;;;;;;;;5054443;28;20564;-72
2022/03/28 14:11:21;;;;;;;53.63;25.33;;;;;;;;;;5055188;28;20024;-68
2022/03/28 14:13:48;;;;;;;48.58;25.35;;;;;;;;;;5055506;28;20040;-69
2022/03/28 14:16:16;;;;;;;52.22;24.85;;;;;;;;;;5074126;28;20024;-69
2022/03/28 14:18:44;;;;;;;54.97;24.50;;;;;;;;;;5074191;28;20019;-69
2022/03/28 14:21:11;;;;;;;59.17;25.10;;;;;;;;;;5073887;28;20178;-69
2022/03/28 14:23:37;;;;;;;49.70;23.70;;;;;;;;;;5080535;28;20024;-68
2022/03/28 14:26:03;;;;;;;55.50;23.73;;;;;;;;;;5072529;28;20035;-69
2022/03/28 14:28:30;;;;;;;49.28;23.65;;;;;;;;;;5074217;28;20056;-67
2022/03/28 14:30:56;;;;;;;41.20;22.17;;;;;;;;;;5055126;28;20032;-69